Time;durP1;ratioP1;P1;durP2;ratioP2;P2;SDS_P1;SDS_P2;PMS_P1;PMS_P2;Temp;Humidity;BMP_temperature;BMP_pressure;BME280_temperature;BME280_humidity;BME280_pressure;Samples;Min_cycle;Max_cycle;Signal;HPM_P1;HPM_P2
2024/02/23 00:00:55;;;;;;;2.22;0.77;;;;;;;9.54;100.00;97946.94;6299950;28;20059;-77
2024/02/23 00:03:57;;;;;;;1.50;0.57;;;;;;;9.54;100.00;97963.50;6298936;28;20352;-76
2024/02/23 00:06:58;;;;;;;7.22;1.02;;;;;;;9.57;100.00;97978.09;6287140;28;20046;-75
2024/02/23 00:09:59;;;;;;;1.23;0.50;;;;;;;9.52;100.00;97980.34;6274639;28;20132;-75
2024/02/23 00:13:02;;;;;;;3.80;0.80;;;;;;;9.49;100.00;97984.06;6274920;28;20049;-76
2024/02/23 00:16:04;;;;;;;6.97;0.80;;;;;;;9.50;100.00;97972.63;6293511;28;20048;-75
2024/02/23 00:19:05;;;;;;;2.58;1.05;;;;;;;9.49;100.00;97994.53;6274813;28;21382;-76
2024/02/23 00:22:06;;;;;;;0.65;0.55;;;;;;;9.49;100.00;97997.16;6294296;28;20041;-76
2024/02/23 00:25:08;;;;;;;7.72;1.00;;;;;;;9.46;100.00;97983.53;6299472;28;20045;-76
2024/02/23 00:28:11;;;;;;;3.05;0.80;;;;;;;9.47;100.00;97993.03;6299138;28;20125;-75
2024/02/23 00:31:12;;;;;;;3.65;1.17;;;;;;;9.46;100.00;98009.75;6299804;28;20444;-75
2024/02/23 00:34:14;;;;;;;1.85;0.50;;;;;;;9.39;100.00;98009.47;6299237;28;20040;-76
2024/02/23 00:37:15;;;;;;;4.20;0.80;;;;;;;9.34;100.00;97999.41;6299665;28;20040;-75
2024/02/23 00:40:17;;;;;;;4.55;1.20;;;;;;;9.37;100.00;98021.91;6298817;28;20567;-75
2024/02/23 00:43:20;;;;;;;6.65;0.50;;;;;;;9.32;100.00;98027.56;6299610;28;20048;-75
2024/02/23 00:46:22;;;;;;;2.22;0.45;;;;;;;9.29;100.00;98042.75;6299107;28;20055;-75
2024/02/23 00:49:23;;;;;;;3.10;0.50;;;;;;;9.29;100.00;98045.38;6298825;28;20052;-76
2024/02/23 00:52:25;;;;;;;1.77;0.60;;;;;;;9.25;100.00;98034.31;6299274;28;20344;-76
2024/02/23 00:55:26;;;;;;;4.68;0.70;;;;;;;9.18;100.00;98056.84;6298828;28;20449;-75
2024/02/23 00:58:29;;;;;;;5.57;0.60;;;;;;;9.15;100.00;98055.31;6298921;28;20055;-75
2024/02/23 01:01:32;;;;;;;0.50;0.40;;;;;;;9.14;100.00;98066.75;6299172;28;20058;-76
2024/02/23 01:04:33;;;;;;;1.38;0.50;;;;;;;9.03;100.00;98081.78;6299079;28;20051;-76
2024/02/23 01:07:34;;;;;;;0.93;0.45;;;;;;;9.09;100.00;98103.03;6299157;28;20536;-75
2024/02/23 01:10:35;;;;;;;0.90;0.55;;;;;;;8.95;100.00;98157.59;6298724;28;20045;-76
2024/02/23 01:13:38;;;;;;;0.13;0.13;;;;;;;8.37;100.00;98187.06;6300444;28;20458;-75
2024/02/23 01:16:39;;;;;;;0.35;0.30;;;;;;;7.35;100.00;98223.31;6295283;28;20044;-77
2024/02/23 01:19:41;;;;;;;1.75;0.20;;;;;;;6.44;100.00;98197.47;6303145;28;20044;-77
2024/02/23 01:22:43;;;;;;;0.05;0.00;;;;;;;6.19;100.00;98229.00;6303521;28;20037;-75
2024/02/23 01:25:44;;;;;;;0.00;0.00;;;;;;;6.12;100.00;98238.22;6303184;28;20455;-76
2024/02/23 01:28:47;;;;;;;0.43;0.10;;;;;;;6.12;100.00;98241.66;6302830;28;20047;-75
2024/02/23 01:31:48;;;;;;;0.52;0.20;;;;;;;6.13;100.00;98266.78;6303422;28;20437;-75
2024/02/23 01:34:49;;;;;;;0.10;0.10;;;;;;;6.27;100.00;98287.47;6302796;28;20044;-75
2024/02/23 01:37:50;;;;;;;0.30;0.15;;;;;;;6.22;100.00;98301.78;6302855;28;20045;-74
2024/02/23 01:40:52;;;;;;;0.10;0.10;;;;;;;6.12;100.00;98319.06;6302542;28;20491;-75
2024/02/23 01:43:55;;;;;;;0.32;0.17;;;;;;;6.03;100.00;98339.66;6302928;28;20040;-75
2024/02/23 01:46:56;;;;;;;0.10;0.10;;;;;;;6.01;100.00;98344.16;6317227;22;20053;-74
2024/02/23 01:49:59;;;;;;;0.10;0.10;;;;;;;5.93;100.00;98350.88;6302539;28;20128;-74
2024/02/23 01:53:03;;;;;;;0.10;0.10;;;;;;;5.74;100.00;98373.00;6302867;28;20040;-71
2024/02/23 01:56:05;;;;;;;0.10;0.10;;;;;;;5.79;100.00;98386.53;6313174;28;20348;-75
2024/02/23 01:59:11;;;;;;;0.28;0.28;;;;;;;5.66;100.00;98383.16;6327319;28;20440;-73
2024/02/23 02:02:12;;;;;;;0.73;0.08;;;;;;;5.78;100.00;98402.31;6327610;28;20040;-74
2024/02/23 02:05:14;;;;;;;0.10;0.10;;;;;;;5.80;100.00;98408.22;6327413;28;20051;-73
2024/02/23 02:08:16;;;;;;;0.00;0.00;;;;;;;5.68;100.00;98399.53;6327041;28;20044;-74
2024/02/23 02:11:17;;;;;;;0.20;0.20;;;;;;;5.69;100.00;98413.38;6313090;28;20055;-74
2024/02/23 02:14:20;;;;;;;0.10;0.10;;;;;;;5.73;100.00;98410.44;6298368;28;20044;-75
2024/02/23 02:17:21;;;;;;;0.20;0.20;;;;;;;5.86;100.00;98426.06;6308213;28;20045;-74
2024/02/23 02:20:25;;;;;;;0.28;0.28;;;;;;;5.89;100.00;98415.38;6314170;28;20044;-75
2024/02/23 02:23:27;;;;;;;0.20;0.10;;;;;;;5.92;100.00;98432.63;6301960;28;20052;-75
2024/02/23 02:26:28;;;;;;;0.10;0.10;;;;;;;5.95;100.00;98453.25;6315030;28;20126;-75
2024/02/23 02:29:31;;;;;;;0.10;0.10;;;;;;;5.92;100.00;98461.28;6318405;28;20443;-76
2024/02/23 02:32:32;;;;;;;0.28;0.28;;;;;;;5.91;100.00;98465.66;6327023;28;20051;-74
2024/02/23 02:35:33;;;;;;;0.35;0.20;;;;;;;5.85;100.00;98466.88;6326506;28;20044;-74
2024/02/23 02:38:35;;;;;;;0.40;0.40;;;;;;;5.87;100.00;98481.63;6326411;28;20040;-75
2024/02/23 02:41:36;;;;;;;0.22;0.20;;;;;;;5.83;100.00;98486.19;6326698;28;20455;-75
2024/02/23 02:44:39;;;;;;;0.10;0.10;;;;;;;5.80;100.00;98507.25;6326538;28;20040;-75
2024/02/23 02:47:40;;;;;;;0.20;0.20;;;;;;;5.75;100.00;98506.75;6326262;28;20059;-76
2024/02/23 02:50:41;;;;;;;1.08;0.40;;;;;;;5.75;100.00;98525.00;6326554;28;20047;-76
2024/02/23 02:53:43;;;;;;;0.30;0.20;;;;;;;5.84;100.00;98533.00;6326026;28;20063;-77
2024/02/23 02:56:46;;;;;;;0.45;0.40;;;;;;;5.88;100.00;98544.06;6326536;28;20051;-77
2024/02/23 02:59:50;;;;;;;0.68;0.32;;;;;;;5.88;100.00;98551.88;6325943;28;20051;-77
2024/02/23 03:02:51;;;;;;;2.00;0.30;;;;;;;5.93;100.00;98557.63;6326082;28;20444;-76
2024/02/23 03:05:52;;;;;;;0.43;0.20;;;;;;;5.92;100.00;98569.00;6325932;28;20051;-75
2024/02/23 03:08:53;;;;;;;0.43;0.43;;;;;;;5.96;100.00;98548.78;6325563;28;20047;-77
2024/02/23 03:11:55;;;;;;;0.30;0.30;;;;;;;6.00;100.00;98571.91;6326118;28;20051;-75
2024/02/23 03:14:57;;;;;;;0.88;0.50;;;;;;;6.01;100.00;98573.56;6325558;28;20355;-77
2024/02/23 03:18:00;;;;;;;5.75;0.60;;;;;;;6.23;100.00;98574.69;6325606;28;20048;-77
2024/02/23 03:21:02;;;;;;;1.70;0.38;;;;;;;6.19;100.00;98571.47;6325823;28;20601;-77
2024/02/23 03:24:04;;;;;;;1.40;0.60;;;;;;;6.11;100.00;98573.75;6325924;28;20044;-76
2024/02/23 03:27:05;;;;;;;1.02;0.52;;;;;;;6.05;100.00;98589.84;6325626;28;20048;-74
2024/02/23 03:30:09;;;;;;;1.00;0.65;;;;;;;6.03;100.00;98582.09;6325479;28;20083;-75
2024/02/23 03:33:10;;;;;;;2.50;0.70;;;;;;;6.08;100.00;98593.03;6325589;28;20044;-75
2024/02/23 03:36:12;;;;;;;0.88;0.68;;;;;;;6.15;100.00;98587.44;6324842;28;20044;-76
2024/02/23 03:39:13;;;;;;;2.90;0.70;;;;;;;6.05;100.00;98610.72;6317436;28;20508;-74
2024/02/23 03:42:14;;;;;;;1.38;0.60;;;;;;;6.16;100.00;98604.72;6307012;28;20321;-77
2024/02/23 03:45:17;;;;;;;0.43;0.40;;;;;;;6.22;100.00;98614.72;6324893;28;20048;-77
2024/02/23 03:48:18;;;;;;;6.63;0.95;;;;;;;6.18;100.00;98608.09;6305089;28;20045;-75
2024/02/23 03:51:20;;;;;;;0.50;0.50;;;;;;;6.21;100.00;98621.72;6316966;28;20051;-77
2024/02/23 03:54:21;;;;;;;6.32;0.77;;;;;;;6.23;100.00;98627.69;6320660;28;20348;-76
2024/02/23 03:57:22;;;;;;;1.42;0.68;;;;;;;6.28;100.00;98622.97;6313011;28;20047;-75
2024/02/23 04:00:25;;;;;;;0.95;0.63;;;;;;;6.27;100.00;98626.53;6324478;28;20055;-75
2024/02/23 04:03:26;;;;;;;3.63;0.93;;;;;;;6.31;100.00;98624.53;6324977;28;20077;-75
2024/02/23 04:06:27;;;;;;;1.60;0.90;;;;;;;6.18;100.00;98640.22;6324602;28;20051;-77
2024/02/23 04:09:29;;;;;;;0.90;0.70;;;;;;;6.24;100.00;98624.13;6324369;28;20490;-76
2024/02/23 04:12:31;;;;;;;4.22;1.00;;;;;;;6.34;100.00;98627.75;6299982;28;20072;-76
2024/02/23 04:15:34;;;;;;;0.95;0.85;;;;;;;6.28;100.00;98640.41;6312214;28;20055;-76
2024/02/23 04:18:35;;;;;;;1.17;0.98;;;;;;;6.25;100.00;98636.22;6299495;28;20041;-77
2024/02/23 04:21:36;;;;;;;1.90;0.82;;;;;;;6.27;100.00;98636.13;6322956;28;20048;-77
2024/02/23 04:24:40;;;;;;;2.05;0.98;;;;;;;6.21;100.00;98646.97;6318186;28;20040;-76
2024/02/23 04:27:41;;;;;;;1.13;0.80;;;;;;;6.29;100.00;98648.13;6298965;28;20051;-78
2024/02/23 04:30:44;;;;;;;1.80;0.82;;;;;;;6.37;100.00;98659.81;6323642;28;20051;-76
2024/02/23 04:33:45;;;;;;;6.05;0.70;;;;;;;6.34;100.00;98661.66;6324299;28;20044;-74
2024/02/23 04:36:46;;;;;;;1.95;0.95;;;;;;;6.33;100.00;98657.41;6324665;28;20044;-77
2024/02/23 04:39:48;;;;;;;2.72;0.85;;;;;;;6.36;100.00;98677.22;6324066;28;20446;-75
2024/02/23 04:42:49;;;;;;;4.40;1.00;;;;;;;6.33;100.00;98683.47;6324678;28;20044;-77
2024/02/23 04:45:52;;;;;;;3.83;0.93;;;;;;;6.46;100.00;98680.03;6323940;28;20048;-76
2024/02/23 04:48:53;;;;;;;1.67;0.80;;;;;;;6.48;100.00;98678.13;6326290;28;20424;-77
2024/02/23 04:51:55;;;;;;;6.15;1.08;;;;;;;6.44;100.00;98663.63;6329457;28;20432;-75
2024/02/23 04:54:56;;;;;;;2.10;1.00;;;;;;;6.53;100.00;98681.25;6310631;28;20056;-75
2024/02/23 04:57:57;;;;;;;5.85;1.10;;;;;;;6.52;100.00;98684.81;6303650;28;20040;-77
2024/02/23 05:01:00;;;;;;;1.77;0.75;;;;;;;6.51;100.00;98698.81;6309268;28;20048;-75
2024/02/23 05:04:03;;;;;;;5.63;0.88;;;;;;;6.48;100.00;98685.97;6309015;28;20332;-76
2024/02/23 05:07:04;;;;;;;5.18;1.50;;;;;;;6.42;100.00;98695.06;6315375;28;20052;-77
2024/02/23 05:10:06;;;;;;;3.85;0.70;;;;;;;6.46;100.00;98703.50;6328549;28;20048;-77
2024/02/23 05:13:08;;;;;;;5.57;1.10;;;;;;;6.38;100.00;98693.59;6327813;28;20047;-77
2024/02/23 05:16:12;;;;;;;6.18;0.98;;;;;;;6.39;100.00;98694.44;6293468;28;20361;-78
2024/02/23 05:19:14;;;;;;;3.63;0.88;;;;;;;6.38;100.00;98697.97;6300258;28;20058;-78
2024/02/23 05:22:15;;;;;;;7.20;0.60;;;;;;;6.42;100.00;98713.31;6298766;28;20044;-78
2024/02/23 05:25:16;;;;;;;1.30;0.77;;;;;;;6.38;100.00;98711.84;6323238;28;20044;-77
2024/02/23 05:28:18;;;;;;;1.40;0.63;;;;;;;6.45;100.00;98725.31;6316281;28;20055;-77
2024/02/23 05:31:21;;;;;;;0.93;0.70;;;;;;;6.46;100.00;98727.00;6316944;28;20436;-78
2024/02/23 05:34:22;;;;;;;1.25;0.93;;;;;;;6.45;100.00;98715.72;6329241;28;20040;-76
2024/02/23 05:37:23;;;;;;;2.00;0.90;;;;;;;6.44;100.00;98727.06;6313089;28;20040;-77
2024/02/23 05:40:25;;;;;;;7.18;0.95;;;;;;;6.45;100.00;98728.78;6328887;28;20048;-77
2024/02/23 05:43:26;;;;;;;1.23;0.70;;;;;;;6.44;100.00;98729.69;6329780;28;20037;-77
2024/02/23 05:46:29;;;;;;;1.42;0.93;;;;;;;6.44;100.00;98729.69;6328248;28;20344;-77
2024/02/23 05:49:30;;;;;;;2.80;0.73;;;;;;;6.44;100.00;98740.13;6319514;28;20044;-78
2024/02/23 05:52:32;;;;;;;1.50;1.02;;;;;;;6.44;100.00;98744.50;6314049;28;20052;-78
2024/02/23 05:55:33;;;;;;;2.40;0.75;;;;;;;6.42;100.00;98746.41;6325078;28;20048;-77
2024/02/23 05:58:36;;;;;;;2.75;0.60;;;;;;;6.50;100.00;98757.16;6313019;28;20052;-77
2024/02/23 06:01:38;;;;;;;7.65;0.60;;;;;;;6.46;100.00;98760.91;6324662;28;20044;-78
2024/02/23 06:04:41;;;;;;;3.42;0.85;;;;;;;6.45;100.00;98765.31;6315068;28;20041;-77
2024/02/23 06:07:42;;;;;;;0.95;0.50;;;;;;;6.45;100.00;98769.66;6292125;28;20455;-77
2024/02/23 06:10:44;;;;;;;1.58;0.80;;;;;;;6.41;100.00;98781.25;6296093;28;20356;-77
2024/02/23 06:13:45;;;;;;;8.82;1.58;;;;;;;6.34;100.00;98792.09;6297084;28;20047;-77
2024/02/23 06:16:48;;;;;;;3.25;1.00;;;;;;;6.38;100.00;98797.94;6318081;28;20455;-77
2024/02/23 06:19:50;;;;;;;3.90;1.05;;;;;;;6.37;100.00;98792.84;6314510;28;20050;-77
2024/02/23 06:22:51;;;;;;;1.65;0.47;;;;;;;6.39;100.00;98801.38;6310293;28;20048;-77
2024/02/23 06:25:53;;;;;;;6.10;0.90;;;;;;;6.41;100.00;98802.97;6309693;28;20044;-77
2024/02/23 06:28:54;;;;;;;8.75;1.05;;;;;;;6.37;100.00;98809.31;6317164;28;20040;-77
2024/02/23 06:31:57;;;;;;;3.63;0.80;;;;;;;6.40;100.00;98809.09;6326746;28;20055;-77
2024/02/23 06:34:58;;;;;;;1.30;0.63;;;;;;;6.38;100.00;98818.81;6326511;28;20044;-77
2024/02/23 06:37:59;;;;;;;6.03;1.17;;;;;;;6.46;100.00;98820.91;6326217;28;20075;-78
2024/02/23 06:41:01;;;;;;;2.33;0.77;;;;;;;6.50;100.00;98818.00;6326253;28;20067;-77
2024/02/23 06:44:02;;;;;;;2.28;1.58;;;;;;;6.44;100.00;98831.44;6326070;28;20328;-77
2024/02/23 06:47:06;;;;;;;4.30;1.13;;;;;;;6.41;100.00;98841.28;6326319;28;20056;-77
2024/02/23 06:50:08;;;;;;;8.65;1.10;;;;;;;6.53;100.00;98828.22;6326045;28;20098;-78
2024/02/23 06:53:09;;;;;;;1.30;0.80;;;;;;;6.48;100.00;98835.53;6326078;28;20348;-78
2024/02/23 06:56:12;;;;;;;4.93;1.25;;;;;;;6.45;100.00;98837.50;6292525;28;20181;-78
2024/02/23 06:59:13;;;;;;;7.88;1.17;;;;;;;6.44;100.00;98843.66;6298923;28;20076;-77
2024/02/23 07:02:16;;;;;;;6.53;1.17;;;;;;;6.56;100.00;98845.44;6303902;28;20495;-77
2024/02/23 07:05:18;;;;;;;3.17;0.93;;;;;;;6.63;100.00;98848.47;6325565;28;20047;-77
2024/02/23 07:08:19;;;;;;;2.67;0.93;;;;;;;6.63;100.00;98849.31;6325753;28;20044;-77
2024/02/23 07:11:20;;;;;;;1.67;0.93;;;;;;;6.51;100.00;98848.38;6325720;28;20055;-78
2024/02/23 07:14:22;;;;;;;4.13;0.68;;;;;;;6.55;100.00;98860.28;6325419;28;20055;-77
2024/02/23 07:17:24;;;;;;;4.25;0.95;;;;;;;6.48;100.00;98845.97;6325689;28;20048;-77
2024/02/23 07:20:26;;;;;;;6.88;1.10;;;;;;;6.49;100.00;98850.22;6324984;28;20348;-78
2024/02/23 07:23:27;;;;;;;5.20;0.90;;;;;;;6.48;100.00;98860.78;6325684;28;20044;-77
2024/02/23 07:26:29;;;;;;;3.10;1.00;;;;;;;6.47;100.00;98866.94;6325147;28;20048;-77
2024/02/23 07:29:30;;;;;;;5.15;0.93;;;;;;;6.53;100.00;98867.34;6325231;28;20050;-77
2024/02/23 07:32:33;;;;;;;1.27;0.90;;;;;;;6.51;100.00;98861.41;6325338;28;20052;-78
2024/02/23 07:35:34;;;;;;;2.78;0.65;;;;;;;6.47;100.00;98856.50;6325118;28;20044;-77
2024/02/23 07:38:35;;;;;;;1.42;0.68;;;;;;;6.53;100.00;98892.63;6324919;28;20055;-78
2024/02/23 07:41:37;;;;;;;3.42;0.68;;;;;;;6.54;100.00;98874.28;6325535;28;20040;-77
2024/02/23 07:44:38;;;;;;;4.97;0.77;;;;;;;6.61;100.00;98875.50;6325079;28;20428;-77
2024/02/23 07:47:41;;;;;;;4.10;0.63;;;;;;;6.56;100.00;98882.81;6300581;22;20041;-74
2024/02/23 07:50:42;;;;;;;1.58;0.43;;;;;;;6.72;100.00;98876.56;6275463;28;20045;-74
2024/02/23 07:53:43;;;;;;;2.33;0.90;;;;;;;6.67;100.00;98883.88;6274995;28;20048;-73
2024/02/23 07:56:45;;;;;;;6.45;0.60;;;;;;;6.73;100.00;98888.69;6288727;28;20044;-74
2024/02/23 07:59:46;;;;;;;0.82;0.52;;;;;;;6.83;100.00;98887.97;6299417;28;20044;-73
2024/02/23 08:02:49;;;;;;;5.38;0.77;;;;;;;6.89;100.00;98894.53;6299854;28;20483;-73
2024/02/23 08:05:50;;;;;;;5.03;0.88;;;;;;;6.98;100.00;98883.47;6299558;28;20119;-73
2024/02/23 08:08:53;;;;;;;2.35;0.80;;;;;;;7.01;100.00;98896.31;6299429;28;20048;-74
2024/02/23 08:11:54;;;;;;;14.95;1.13;;;;;;;7.06;100.00;98890.78;6293503;28;20080;-74
2024/02/23 08:14:56;;;;;;;5.88;1.05;;;;;;;6.98;100.00;98893.91;6270948;28;20041;-74
2024/02/23 08:17:58;;;;;;;4.82;0.50;;;;;;;7.08;100.00;98892.31;6272417;28;20052;-74
2024/02/23 08:21:02;;;;;;;4.22;0.70;;;;;;;7.06;100.00;98896.84;6292117;28;20044;-75
2024/02/23 08:24:03;;;;;;;3.47;0.60;;;;;;;7.20;100.00;98898.50;6300497;28;20044;-74
2024/02/23 08:27:05;;;;;;;6.78;0.98;;;;;;;7.21;100.00;98901.94;6281062;28;20575;-74
2024/02/23 08:30:08;;;;;;;3.50;0.60;;;;;;;7.16;100.00;98922.31;6304439;28;20429;-74
2024/02/23 08:33:11;;;;;;;4.03;0.77;;;;;;;7.14;100.00;98919.00;6304617;28;20449;-74
2024/02/23 08:36:12;;;;;;;0.70;0.60;;;;;;;7.21;100.00;98925.44;6304508;28;20076;-75
2024/02/23 08:39:13;;;;;;;1.42;0.65;;;;;;;7.26;100.00;98939.03;6303999;28;20048;-74
2024/02/23 08:42:15;;;;;;;3.88;0.82;;;;;;;7.27;100.00;98935.50;6304696;28;20447;-74
2024/02/23 08:45:16;;;;;;;1.27;0.50;;;;;;;7.24;100.00;98936.53;6304052;28;20059;-74
2024/02/23 08:48:19;;;;;;;4.80;0.60;;;;;;;7.22;100.00;98948.88;6303890;28;20048;-74
2024/02/23 08:51:20;;;;;;;5.15;0.75;;;;;;;7.25;100.00;98938.19;6277293;28;20045;-74
2024/02/23 08:54:21;;;;;;;0.70;0.57;;;;;;;7.33;100.00;98956.81;6269646;28;20041;-74
2024/02/23 08:57:23;;;;;;;3.67;0.77;;;;;;;7.48;100.00;98956.69;6274418;28;20467;-75
2024/02/23 09:00:24;;;;;;;1.63;0.60;;;;;;;7.58;100.00;98952.47;6279848;28;20432;-75
2024/02/23 09:03:27;;;;;;;4.00;0.60;;;;;;;7.68;100.00;98957.94;6279102;28;20326;-74
2024/02/23 09:06:28;;;;;;;3.55;0.65;;;;;;;7.78;100.00;98949.31;6299660;28;20047;-74
2024/02/23 09:09:30;;;;;;;3.20;0.75;;;;;;;7.80;100.00;98949.19;6303298;28;20048;-74
2024/02/23 09:12:31;;;;;;;5.55;0.85;;;;;;;7.65;100.00;98956.34;6303906;28;20450;-74
2024/02/23 09:15:32;;;;;;;1.45;0.50;;;;;;;7.71;100.00;98963.75;6303267;28;20052;-74
2024/02/23 09:18:35;;;;;;;1.83;0.40;;;;;;;7.79;100.00;98965.84;6303299;28;20060;-75
2024/02/23 09:21:37;;;;;;;0.98;0.55;;;;;;;7.88;100.00;98975.66;6303731;28;20330;-75
2024/02/23 09:24:40;;;;;;;2.83;0.57;;;;;;;7.92;100.00;98978.88;6303315;28;20453;-75
2024/02/23 09:27:43;;;;;;;3.10;0.60;;;;;;;7.86;100.00;98981.00;6303109;28;20131;-74
2024/02/23 09:30:44;;;;;;;1.65;0.50;;;;;;;7.92;100.00;98979.72;6303524;28;20448;-74
2024/02/23 09:33:49;;;;;;;2.05;0.45;;;;;;;8.08;100.00;99000.38;6302924;28;20044;-74
2024/02/23 09:36:50;;;;;;;0.82;0.40;;;;;;;8.07;100.00;99001.34;6303376;28;20071;-74
2024/02/23 09:39:52;;;;;;;2.55;0.50;;;;;;;8.09;100.00;98995.06;6302425;28;20356;-77
2024/02/23 09:42:57;;;;;;;2.13;0.50;;;;;;;8.16;100.00;99005.91;6303320;28;20448;-75
2024/02/23 09:45:59;;;;;;;4.35;0.50;;;;;;;8.21;100.00;99008.19;6302612;28;20055;-75
2024/02/23 09:49:03;;;;;;;10.95;0.98;;;;;;;8.15;100.00;99019.94;6302427;28;20127;-74
2024/02/23 09:52:07;;;;;;;3.83;0.40;;;;;;;8.25;100.00;99026.19;6303086;28;20194;-75
2024/02/23 09:55:09;;;;;;;1.13;0.35;;;;;;;8.22;100.00;99017.72;6302393;28;20044;-75
2024/02/23 09:58:15;;;;;;;4.05;0.75;;;;;;;8.23;100.00;99019.41;6302447;28;20053;-75
2024/02/23 10:01:25;;;;;;;6.78;0.40;;;;;;;8.22;100.00;99026.44;6263900;28;20058;-76
2024/02/23 10:04:29;;;;;;;2.45;0.60;;;;;;;8.17;100.00;99022.44;6268482;28;20159;-75
2024/02/23 10:07:30;;;;;;;2.25;0.57;;;;;;;8.14;100.00;99047.88;6280838;28;20476;-75
2024/02/23 10:10:34;;;;;;;7.75;0.52;;;;;;;7.96;100.00;99051.81;6277116;28;20049;-75
2024/02/23 10:13:35;;;;;;;3.38;0.68;;;;;;;8.07;100.00;99040.56;6276353;28;20041;-75
2024/02/23 10:16:37;;;;;;;1.10;0.55;;;;;;;8.06;100.00;99050.22;6280466;28;20036;-75
2024/02/23 10:19:39;;;;;;;2.90;0.40;;;;;;;8.18;100.00;99058.16;6276695;28;20052;-73
2024/02/23 10:22:41;;;;;;;5.05;0.90;;;;;;;8.25;100.00;99054.97;6293117;28;20045;-74
2024/02/23 10:25:42;;;;;;;1.70;0.50;;;;;;;8.27;100.00;99054.88;6282870;28;20051;-74
2024/02/23 10:28:44;;;;;;;5.50;0.47;;;;;;;8.26;100.00;99051.41;6301745;28;20052;-74
2024/02/23 10:31:49;;;;;;;1.67;0.60;;;;;;;8.28;100.00;99067.03;6295225;28;20045;-74
2024/02/23 10:34:53;;;;;;;3.60;0.55;;;;;;;8.31;100.00;99070.25;6300878;28;20052;-75
2024/02/23 10:37:55;;;;;;;1.00;0.60;;;;;;;8.34;99.86;99061.34;6272155;28;20044;-75
2024/02/23 10:40:57;;;;;;;0.57;0.28;;;;;;;8.33;100.00;99062.28;6256258;28;20099;-74
2024/02/23 10:43:59;;;;;;;0.50;0.50;;;;;;;8.35;100.00;99063.84;6252042;28;20136;-74
2024/02/23 10:47:02;;;;;;;1.92;0.80;;;;;;;8.44;100.00;99072.84;6265847;28;20060;-74
2024/02/23 10:50:08;;;;;;;0.45;0.45;;;;;;;8.43;100.00;99068.56;6275962;28;20098;-73
2024/02/23 10:53:10;;;;;;;1.65;0.90;;;;;;;8.32;98.28;99061.44;6300432;28;20045;-73
2024/02/23 10:56:11;;;;;;;2.15;0.70;;;;;;;8.41;100.00;99049.53;6299999;28;20048;-74
2024/02/23 10:59:13;;;;;;;1.30;0.65;;;;;;;8.52;100.00;99059.22;6299311;28;20048;-76
2024/02/23 11:02:17;;;;;;;5.10;0.75;;;;;;;8.63;99.09;99056.69;6292368;28;20056;-74
2024/02/23 11:05:20;;;;;;;19.38;4.70;;;;;;;8.80;98.79;99050.19;6300663;28;20053;-73
2024/02/23 11:08:22;;;;;;;3.97;0.50;;;;;;;8.85;97.32;99050.69;6289717;28;20053;-79
2024/02/23 11:11:23;;;;;;;3.33;0.52;;;;;;;8.83;96.33;99047.34;6261067;28;20052;-83
2024/02/23 11:14:33;;;;;;;1.05;0.65;;;;;;;8.85;97.34;99042.81;6256218;28;20054;-82
2024/02/23 11:17:38;;;;;;;3.58;0.70;;;;;;;8.95;95.13;99029.88;6261025;28;20149;-75
2024/02/23 11:20:40;;;;;;;0.30;0.30;;;;;;;9.07;92.74;99034.22;6274913;28;20355;-75
2024/02/23 11:23:43;;;;;;;1.27;0.55;;;;;;;9.07;92.34;99032.44;6252689;28;20373;-76
2024/02/23 11:26:44;;;;;;;2.80;0.60;;;;;;;9.12;94.06;99027.69;6266109;28;20405;-76
2024/02/23 11:29:46;;;;;;;3.22;0.40;;;;;;;9.23;90.37;99034.75;6252966;28;20635;-76
2024/02/23 11:32:51;;;;;;;3.47;0.50;;;;;;;9.13;91.12;99018.06;6258512;28;20041;-76
2024/02/23 11:35:55;;;;;;;1.63;0.88;;;;;;;9.28;91.04;99024.75;6266237;28;20456;-76
2024/02/23 11:38:58;;;;;;;3.88;0.50;;;;;;;9.26;91.34;99021.41;6252686;28;20369;-76
2024/02/23 11:42:00;;;;;;;0.73;0.20;;;;;;;9.26;91.31;99020.56;6269222;28;20049;-76
2024/02/23 11:45:02;;;;;;;3.05;0.50;;;;;;;9.26;88.65;99034.50;6250321;28;20045;-75
2024/02/23 11:48:04;;;;;;;6.32;0.70;;;;;;;9.28;86.48;99014.28;6267410;28;20193;-75
2024/02/23 11:51:08;;;;;;;0.93;0.30;;;;;;;9.18;86.61;99017.72;6265422;28;20472;-75
2024/02/23 11:54:09;;;;;;;0.70;0.38;;;;;;;9.25;87.73;99009.25;6252603;28;20172;-75
2024/02/23 11:57:11;;;;;;;0.30;0.30;;;;;;;9.14;90.74;99004.00;6270314;28;20052;-75
2024/02/23 12:00:13;;;;;;;2.45;0.47;;;;;;;9.32;90.58;99017.50;6251789;28;20615;-75
2024/02/23 12:03:14;;;;;;;0.30;0.30;;;;;;;9.40;90.99;99015.97;6257266;28;20518;-76
2024/02/23 12:06:18;;;;;;;4.20;0.32;;;;;;;9.50;88.45;99016.09;6260665;28;20052;-75
2024/02/23 12:09:19;;;;;;;2.90;0.52;;;;;;;9.56;86.67;99017.41;6249789;28;20052;-75
2024/02/23 12:12:21;;;;;;;0.65;0.50;;;;;;;9.58;86.88;99013.72;6270122;28;20048;-75
2024/02/23 12:15:22;;;;;;;7.28;1.10;;;;;;;9.53;84.23;99001.91;6254335;28;20353;-76
2024/02/23 12:18:26;;;;;;;1.42;0.40;;;;;;;9.59;87.47;99014.56;6258246;28;20348;-76
2024/02/23 12:21:28;;;;;;;2.13;0.70;;;;;;;9.64;86.01;99017.66;6260518;28;20053;-76
2024/02/23 12:24:30;;;;;;;3.38;0.60;;;;;;;9.82;86.38;99008.34;6249486;28;20042;-75
2024/02/23 12:27:32;;;;;;;5.72;0.70;;;;;;;9.79;84.33;99016.47;6257602;28;20041;-75
2024/02/23 12:30:34;;;;;;;0.85;0.40;;;;;;;9.97;85.81;99010.72;6262531;28;20060;-75
2024/02/23 12:33:37;;;;;;;1.75;0.60;;;;;;;9.82;81.50;99018.84;6257698;28;20459;-75
2024/02/23 12:36:40;;;;;;;1.23;0.50;;;;;;;9.73;80.23;99024.81;6268264;28;20045;-75
2024/02/23 12:39:41;;;;;;;1.02;0.75;;;;;;;9.69;83.83;99009.44;6284632;28;20044;-75
2024/02/23 12:42:44;;;;;;;4.50;0.50;;;;;;;9.69;83.22;99015.50;6268610;28;20441;-75
2024/02/23 12:45:48;;;;;;;0.55;0.50;;;;;;;9.62;85.36;99019.53;6270976;28;20048;-75
2024/02/23 12:48:50;;;;;;;4.75;0.80;;;;;;;9.53;87.59;99025.50;6267258;28;20105;-75
2024/02/23 12:51:53;;;;;;;1.35;0.52;;;;;;;9.53;84.65;99020.25;6264725;28;20057;-77
2024/02/23 12:54:54;;;;;;;2.90;0.63;;;;;;;9.63;86.01;99027.31;6281041;28;20049;-75
2024/02/23 12:57:56;;;;;;;7.05;0.90;;;;;;;9.78;85.65;99029.69;6273961;28;20136;-75
2024/02/23 13:00:57;;;;;;;2.67;0.47;;;;;;;9.69;85.90;99027.78;6273474;28;20049;-76
2024/02/23 13:03:59;;;;;;;4.15;0.98;;;;;;;9.52;85.29;99024.66;6290625;28;20139;-75
2024/02/23 13:07:02;;;;;;;5.65;1.08;;;;;;;9.44;86.49;99028.81;6276806;28;20056;-76
2024/02/23 13:10:04;;;;;;;8.50;1.20;;;;;;;9.44;84.76;99036.69;6271536;28;20087;-75
2024/02/23 13:13:05;;;;;;;1.55;0.80;;;;;;;9.43;87.93;99040.28;6284156;28;20048;-75
2024/02/23 13:16:08;;;;;;;2.70;0.88;;;;;;;9.55;85.46;99029.69;6277479;28;20040;-75
2024/02/23 13:19:10;;;;;;;4.85;0.90;;;;;;;9.77;86.78;99026.25;6296268;28;20048;-75
2024/02/23 13:22:12;;;;;;;3.95;0.70;;;;;;;9.98;84.21;99028.97;6303830;28;20052;-77
2024/02/23 13:25:14;;;;;;;4.72;0.80;;;;;;;10.43;83.88;99031.56;6291586;28;20048;-75
2024/02/23 13:28:15;;;;;;;4.05;0.70;;;;;;;10.63;80.20;99027.34;6288164;28;20048;-75
2024/02/23 13:31:17;;;;;;;2.70;0.77;;;;;;;10.46;78.10;99038.38;6303563;28;20051;-75
2024/02/23 13:34:18;;;;;;;1.48;0.50;;;;;;;10.37;79.04;99040.78;6302921;28;20044;-75
2024/02/23 13:37:21;;;;;;;1.17;0.45;;;;;;;10.40;78.64;99039.69;6302999;28;20040;-75
2024/02/23 13:40:22;;;;;;;1.60;0.45;;;;;;;10.46;77.01;99038.38;6291389;28;20060;-75
2024/02/23 13:43:24;;;;;;;2.72;0.75;;;;;;;10.40;78.50;99040.53;6289856;28;20051;-75
2024/02/23 13:46:25;;;;;;;4.18;0.50;;;;;;;10.71;78.21;99034.59;6308354;22;20043;-79
2024/02/23 13:49:26;;;;;;;4.70;1.00;;;;;;;11.34;76.79;99036.31;6259683;28;20049;-80
2024/02/23 13:52:30;;;;;;;1.75;0.57;;;;;;;11.59;71.76;99036.91;6290220;28;20052;-82
2024/02/23 13:55:31;;;;;;;5.63;0.70;;;;;;;12.07;74.73;99046.81;6263236;28;20049;-81
2024/02/23 13:58:32;;;;;;;0.40;0.30;;;;;;;12.16;69.87;99048.66;6286866;28;20055;-81
2024/02/23 14:01:34;;;;;;;1.10;0.40;;;;;;;11.55;63.90;99046.00;6283780;28;20045;-80
2024/02/23 14:04:35;;;;;;;0.45;0.40;;;;;;;11.10;69.63;99039.19;6277249;28;20350;-78
2024/02/23 14:07:38;;;;;;;5.82;0.52;;;;;;;11.33;69.63;99057.50;6312629;28;20052;-79
2024/02/23 14:10:39;;;;;;;2.47;0.60;;;;;;;11.89;66.60;99057.13;6279698;28;20045;-82
2024/02/23 14:13:41;;;;;;;6.38;1.55;;;;;;;11.62;67.49;99045.34;6287198;28;20077;-81
2024/02/23 14:16:42;;;;;;;2.97;0.75;;;;;;;11.36;68.91;99044.94;6287784;28;20045;-82